Hlavní strana
METAR-TAF:

METAR-TAF

Letiště :

Curaçao, Nizozemské Antily

zeměpisná šířka: 12-12N, zeměpisná délka: 068-58W, výška: 9 m

Aktuální stav počasí

Zpráva byla vytvořena před 13 minutami, v 11:00 UTC
Východní vítr 13 kt
Teplota 27°C
Vlhkost vzduchu 74%
Tlak 1013 hPa
Viditelnost 10 km a více
Polojasno ve výšce 1800 ft

METAR: TNCC 101100Z 10013KT 9999 SCT018 27/22 Q1013 NOSIG

Čas: 07:13 (11:13 UTC)

Předpověď počasí

Zpráva byla vytvořena před 5 hodinami a 58 minutami, v 05:15 UTC
Předpověď platná od 10 v 06 UTC do 11 v 06 UTC
Východní vítr 13 kt
Viditelnost 10 km a více
Polojasno ve výšce 1800 ft
Pravděpodobnost 40% :
Dočasný
od 10 v 06 UTC do 10 v 23 UTC
Viditelnost: 5000 m
Oblačno až skoro zataženo ve výšce 1400 ft
dešťové přeháňky

TAF: TNCC 100515Z 1006/1106 10013KT 9999 SCT018 PROB40 TEMPO 1006/1023 5000 SHRA BKN014

Stav a předpovědi počasí z více než 4 000 letišť (zprávy METAR a TAF).

Červené a žluté tečky na mapě představují dostupné meteorologické stanice.

Když kurzor umístíte na tečku, zobrazí se název stanice.

Pak kliknutím zobrazíte stav a předpověď počasí.

Chcete-li změnit mapu, kliknutím na zelené tlačítko se znaménkem +mapu přiblížíte, kliknutím na zelené tlačítko se znaménkem – mapu oddálíte a kliknutím na zelené šipky přejdete na sousední mapy.


METAR-TAF: